Flight Track Log - Related Links

Times and Time Zones

All times are in EDT time to prevent confusion due to time zone crossing. See the SWA2139 flight status page for this flight to view local times or setup timezone preferences in your user account.

Time Position Orientation Groundspeed Altitude Reporting Facility
EDT Latitude Longitude Course Direction KTS MPH feet Rate Location/Type
Sun 10:32:28 AM 39.8667 -104.5500 164° South 213 245 7,200  Level Denver TRACON
Sun 10:33:22 AM 39.8333 -104.4833 123° Southeast 249 287 9,400 1,818 Climbing Denver TRACON
Sun 10:34:07 AM 39.8139 -104.4100 109° East 272 313 10,200 1,907 Climbing Denver Center
Sun 10:35:09 AM 39.7261 -104.3650 158° South 343 395 12,800 2,323 Climbing Denver Center
Sun 10:36:11 AM 39.6322 -104.4044 198° South 352 405 15,000 871 Climbing Denver Center
Sun 10:37:00 AM 39.4076 -104.1836 162° South  Level Estimated
Sun 10:37:13 AM 39.5411 -104.4739 210° Southwest 351 404 14,600  Level Denver Center
Sun 10:38:00 AM 39.3165 -104.0864 164° South  Level Estimated
Sun 10:38:15 AM 39.4550 -104.5344 209° Southwest 352 405 16,000  Level Denver Center
Sun 10:39:17 AM 39.3644 -104.5894 205° Southwest 362 417 19,200 2,878 Climbing Denver Center
Sun 10:40:18 AM 39.2608 -104.6372 200° South 371 427 21,900 2,488 Climbing Denver Center
Sun 10:41:20 AM 39.1561 -104.6842 199° South 389 448 24,300 2,226 Climbing Denver Center
Sun 10:42:22 AM 39.0450 -104.7297 198° South 417 480 26,500 1,984 Climbing Denver Center
Sun 10:43:24 AM 38.9269 -104.6881 165° South 444 511 28,400 1,645 Climbing Denver Center
Sun 10:44:26 AM 38.8064 -104.6372 162° South 450 518 29,900 1,548 Climbing Denver Center
Sun 10:45:28 AM 38.6675 -104.5303 149° Southeast 485 558 31,600 1,887 Climbing Denver Center
Sun 10:46:30 AM 38.5561 -104.4322 145° Southeast 489 563 33,800 1,790 Climbing Denver Center
Sun 10:47:32 AM 38.4456 -104.3375 146° Southeast 482 555 35,300 1,355 Climbing Denver Center
Sun 10:48:34 AM 38.3339 -104.2400 146° Southeast 484 557 36,600 1,306 Climbing Denver Center
Sun 10:49:36 AM 38.2050 -104.1319 147° Southeast 485 558 38,000 1,161 Climbing Denver Center
Sun 10:50:38 AM 38.0925 -104.0367 146° Southeast 486 559 39,000 484 Climbing Denver Center
Sun 10:51:40 AM 37.9806 -103.9408 146° Southeast 485 558 39,000  Level Denver Center
Sun 10:52:42 AM 37.8694 -103.8450 146° Southeast 485 558 39,000  Level Denver Center
Sun 10:53:44 AM 37.7567 -103.7489 146° Southeast 484 557 39,000  Level Denver Center
Sun 10:54:46 AM 37.6439 -103.6550 147° Southeast 483 556 39,000  Level Denver Center
Sun 10:55:48 AM 37.5319 -103.5594 146° Southeast 483 556 39,000  Level Denver Center
Sun 10:56:50 AM 37.4197 -103.4656 146° Southeast 483 556 39,000  Level Denver Center
Sun 10:57:52 AM 37.2844 -103.3525 146° Southeast 482 555 39,000  Level Denver Center
Sun 10:58:25 AM 37.2400 -103.3161 147° Southeast 482 555 39,000  Level Albuquerque Center
Sun 10:59:27 AM 37.1261 -103.2231 147° Southeast 483 556 39,000  Level Albuquerque Center
Sun 11:00:28 AM 36.9908 -103.1119 147° Southeast 484 557 39,000  Level Albuquerque Center
Sun 11:01:30 AM 36.8786 -103.0178 146° Southeast 484 557 39,000  Level Albuquerque Center
Sun 11:02:32 AM 36.7661 -102.9256 147° Southeast 484 557 39,000  Level Albuquerque Center
Sun 11:03:34 AM 36.6533 -102.8336 147° Southeast 484 557 39,000  Level Albuquerque Center
Sun 11:04:36 AM 36.5367 -102.7389 147° Southeast 484 557 39,000  Level Albuquerque Center
Sun 11:05:38 AM 36.4242 -102.6481 147° Southeast 485 558 39,000  Level Albuquerque Center
Sun 11:06:40 AM 36.3117 -102.5558 147° Southeast 484 557 39,000  Level Albuquerque Center
Sun 11:07:41 AM 36.1758 -102.4469 147° Southeast 485 558 39,000  Level Albuquerque Center
Sun 11:08:43 AM 36.0636 -102.3561 147° Southeast 484 557 39,000  Level Albuquerque Center
Sun 11:09:45 AM 35.9514 -102.2658 147° Southeast 484 557 39,000  Level Albuquerque Center
Sun 11:10:47 AM 35.8386 -102.1769 147° Southeast 484 557 39,000  Level Albuquerque Center
Sun 11:11:49 AM 35.7272 -102.0883 147° Southeast 482 555 39,000  Level Albuquerque Center
Sun 11:12:51 AM 35.6167 -101.9994 147° Southeast 480 552 39,000  Level Albuquerque Center
Sun 11:13:53 AM 35.4947 -101.9028 147° Southeast 480 552 39,000  Level Albuquerque Center
Sun 11:14:55 AM 35.3831 -101.8142 147° Southeast 479 551 39,000  Level Albuquerque Center
Sun 11:15:57 AM 35.2692 -101.7250 147° Southeast 478 550 39,000  Level Albuquerque Center
Sun 11:16:59 AM 35.1825 -101.5789 126° Southeast 476 548 39,000  Level Albuquerque Center
Sun 11:18:01 AM 35.1147 -101.4358 120° Southeast 481 554 39,000  Level Albuquerque Center
Sun 11:19:03 AM 35.0444 -101.2828 119° Southeast 484 557 39,000  Level Albuquerque Center
Sun 11:20:05 AM 34.9783 -101.1406 120° Southeast 484 557 39,000  Level Albuquerque Center
Sun 11:21:07 AM 34.9122 -100.9983 120° Southeast 484 557 39,000  Level Albuquerque Center
Sun 11:22:09 AM 34.8456 -100.8561 120° Southeast 484 557 39,000  Level Albuquerque Center
Sun 11:23:11 AM 34.7672 -100.6858 119° Southeast 484 557 39,000  Level Albuquerque Center
Sun 11:24:13 AM 34.7003 -100.5444 120° Southeast 484 557 39,000  Level Albuquerque Center
Sun 11:24:43 AM 34.6725 -100.4883 121° Southeast 483 556 39,000  Level Fort Worth Center
Sun 11:25:45 AM 34.5972 -100.3278 120° Southeast 483 556 39,000 -145 Level Fort Worth Center
Sun 11:26:47 AM 34.5247 -100.1781 120° Southeast 483 556 38,700 -624 Descending Fort Worth Center
Sun 11:27:50 AM 34.4586 -100.0361 119° Southeast 483 556 37,700 -816 Descending Fort Worth Center
Sun 11:28:52 AM 34.3897 -99.8944 120° Southeast 485 558 37,000 -339 Descending Fort Worth Center
Sun 11:29:54 AM 34.3161 -99.7417 120° Southeast 484 557 37,000  Level Fort Worth Center
Sun 11:30:56 AM 34.2483 -99.6022 120° Southeast 483 556 37,000  Level Fort Worth Center
Sun 11:31:58 AM 34.1808 -99.4631 120° Southeast 481 554 37,000  Level Fort Worth Center
Sun 11:33:00 AM 34.1144 -99.3250 120° Southeast 479 551 37,000  Level Fort Worth Center
Sun 11:34:02 AM 34.0469 -99.1886 121° Southeast 477 549 37,000  Level Fort Worth Center
Sun 11:35:04 AM 33.9756 -99.0453 121° Southeast 474 545 37,000  Level Fort Worth Center
Sun 11:36:06 AM 33.9075 -98.9078 121° Southeast 474 545 37,000  Level Fort Worth Center
Sun 11:37:08 AM 33.8403 -98.7719 121° Southeast 474 545 37,000  Level Fort Worth Center
Sun 11:38:11 AM 33.7603 -98.6083 120° Southeast 475 547 37,000  Level Fort Worth Center
Sun 11:39:13 AM 33.6931 -98.4731 121° Southeast 474 545 37,000  Level Fort Worth Center
Sun 11:40:15 AM 33.6250 -98.3372 121° Southeast 477 549 37,000  Level Fort Worth Center
Sun 11:41:17 AM 33.5486 -98.1861 121° Southeast 479 551 37,000  Level Fort Worth Center
Sun 11:42:19 AM 33.4878 -98.0653 121° Southeast 476 548 37,000  Level Fort Worth Center
Sun 11:43:21 AM 33.4058 -97.9031 121° Southeast 477 549 37,000  Level Fort Worth Center
Sun 11:44:23 AM 33.3367 -97.7664 121° Southeast 481 554 37,000  Level Fort Worth Center
Sun 11:45:25 AM 33.2667 -97.6336 122° Southeast 475 547 37,000  Level Fort Worth Center
Sun 11:46:27 AM 33.1981 -97.4986 121° Southeast 473 544 37,000  Level Fort Worth Center
Sun 11:47:29 AM 33.1231 -97.3681 124° Southeast 477 549 37,000  Level Fort Worth Center
Sun 11:48:32 AM 32.9986 -97.3108 159° South 485 558 37,000  Level Fort Worth Center
Sun 11:49:34 AM 32.8722 -97.2742 166° South 474 545 37,000  Level Fort Worth Center
Sun 11:50:36 AM 32.7306 -97.2300 165° South 470 541 37,000  Level Fort Worth Center
Sun 11:51:38 AM 32.6067 -97.1906 165° South 469 540 37,000  Level Fort Worth Center
Sun 11:52:40 AM 32.4831 -97.1517 165° South 463 533 37,000  Level Fort Worth Center
Sun 11:53:42 AM 32.3322 -97.1058 166° South 464 534 37,000  Level Fort Worth Center
Sun 11:54:44 AM 32.2075 -97.0661 165° South 463 533 37,000  Level Fort Worth Center
Sun 11:55:46 AM 32.0825 -97.0261 165° South 464 534 37,000  Level Fort Worth Center
Sun 11:56:48 AM 31.9461 -96.9836 165° South 464 534 37,000  Level Fort Worth Center
Sun 11:57:50 AM 31.8194 -96.9467 166° South 465 535 37,000  Level Fort Worth Center
Sun 11:58:53 AM 31.6933 -96.9075 165° South 465 535 37,000  Level Fort Worth Center
Sun 11:59:55 AM 31.5672 -96.8681 165° South 466 536 37,000 -1,065 Level Fort Worth Center
Sun 12:00:57 PM 31.4461 -96.8200 161° South 466 536 34,800 -2,323 Descending Fort Worth Center
Sun 12:01:59 PM 31.3261 -96.7578 156° South 467 537 32,200 -2,323 Descending Fort Worth Center
Sun 12:03:01 PM 31.1864 -96.6894 157° South 454 522 30,000 -2,081 Descending Fort Worth Center
Sun 12:04:03 PM 31.0733 -96.6322 157° South 443 510 27,900 -2,032 Descending Fort Worth Center
Sun 12:05:05 PM 30.9633 -96.5781 157° South 428 493 25,800 -1,986 Descending Fort Worth Center
Sun 12:06:31 PM 30.8136 -96.5039 157° South 416 479 23,000 -1,905 Descending Houston Center
Sun 12:07:33 PM 30.7119 -96.4544 157° South 403 464 21,100 -1,839 Descending Houston Center
Sun 12:08:35 PM 30.6133 -96.4069 157° South 389 448 19,200 -1,694 Descending Houston Center
Sun 12:09:37 PM 30.5192 -96.3606 157° South 376 433 17,600 -1,935 Descending Houston Center
Sun 12:10:39 PM 30.4103 -96.3067 157° South 360 414 15,200 -2,240 Descending Houston Center
Sun 12:10:52 PM 30.3897 -96.2989 162° South 357 411 14,800 -1,839 Descending Houston Center
Sun 12:11:41 PM 30.3192 -96.2631 156° South 357 411 13,300 -1,891 Descending Houston Center
Sun 12:12:24 PM 30.2539 -96.2317 157° South 340 391 11,900 -1,839 Descending Houston Center
Sun 12:12:43 PM 30.2328 -96.2194 153° Southeast 347 399 11,400 -871 Descending Houston Center
Sun 12:13:26 PM 30.1708 -96.1903 158° South 330 380 11,000 -381 Descending Houston Center
Sun 12:13:46 PM 30.1492 -96.1767 151° Southeast 335 386 11,000  Level Houston Center
Sun 12:14:27 PM 30.0825 -96.1400 155° Southeast 324 373 11,000  Level Houston Center
Sun 12:14:48 PM 30.0686 -96.1331 157° South 326 375 11,000  Level Houston Center
Sun 12:15:28 PM 29.9992 -96.0964 155° Southeast 328 377 11,000  Level Houston Center
Sun 12:15:50 PM 29.9853 -96.0889 155° Southeast 326 375 11,000  Level Houston Center
Sun 12:16:30 PM 29.9178 -96.0525 155° Southeast 324 373 11,000  Level Houston Center
Sun 12:16:52 PM 29.8867 -96.0369 157° South 326 375 11,000  Level Houston Center
Sun 12:17:37 PM 29.8231 -96.0031 155° Southeast 326 375 11,000  Level Houston Center
Sun 12:17:54 PM 29.8150 -95.9958 142° Southeast 326 375 11,000  Level Houston Center
Sun 12:18:32 PM 29.7589 -95.9406 139° Southeast 311 358 11,000  Level Houston Center
Sun 12:18:56 PM 29.7486 -95.9306 140° Southeast 321 369 11,000 -290 Level Houston Center
Sun 12:19:34 PM 29.6969 -95.8806 140° Southeast 298 343 10,700 -871 Descending Houston Center
Sun 12:19:58 PM 29.6733 -95.8556 137° Southeast 303 349 10,100 -1,433 Descending Houston Center
Sun 12:20:41 PM 29.6258 -95.8117 141° Southeast 294 338 9,100 -1,258 Descending Houston Center
Sun 12:21:00 PM 29.6108 -95.7972 140° Southeast 295 339 8,800 -1,393 Descending Houston Center
Sun 12:21:37 PM 29.5686 -95.7583 141° Southeast 283 326 7,800 -1,333 Descending Houston Center
Sun 12:22:03 PM 29.5519 -95.7386 134° Southeast 287 330 7,400 -1,475 Descending Houston Center
Sun 12:22:38 PM 29.5575 -95.6803 84° East 279 321 6,300 -1,355 Descending Houston Center
Sun 12:23:05 PM 29.5717 -95.6592 52° Northeast 282 325 6,000 -290 Descending Houston Center
Sun 12:23:40 PM 29.5972 -95.6061 61° Northeast 268 308 6,000  Level Houston Center
Sun 12:24:07 PM 29.6078 -95.5842 61° Northeast 274 315 6,000 -545 Level Houston Center
Sun 12:24:35 PM 29.6269 -95.5425 62° Northeast 238 274 5,500 -1,258 Descending Houston Center
Sun 12:25:09 PM 29.6472 -95.5061 57° Northeast 242 278 4,700 -1,500 Descending Houston Center
Sun 12:25:43 PM 29.6647 -95.4708 60° Northeast 231 266 3,800 -1,355 Descending Houston Center
Sun 12:26:11 PM 29.6786 -95.4419 61° Northeast 234 269 3,300 -900 Descending Houston Center
Sun 12:26:43 PM 29.6947 -95.4094 60° Northeast 194 223 2,900 -871 Descending Houston Center
Sun 12:27:13 PM 29.7061 -95.3867 60° Northeast 215 247 2,400 -1,065 Descending Houston Center
Sun 12:27:45 PM 29.7108 -95.3569 80° East 161 185 1,800 -871 Descending Houston Center
Sun 12:28:15 PM 29.7003 -95.3428 131° Southeast 175 201 1,500 -787 Descending Houston Center
Sun 12:28:46 PM 29.6828 -95.3242 137° Southeast 135 155 1,000 -762 Descending Houston Center
Sun 12:29:18 PM 29.6731 -95.3125 134° Southeast 150 173 700 -689 Descending Houston Center
Sun 12:29:47 PM 29.6569 -95.2936 134° Southeast 135 155 300 22,548 Descending Houston Center
Sun 12:30:20 PM 29.6467 -95.2806 132° Southeast 142 163 24,000 43,091 Climbing Houston Center
Sun 12:32:00 PM 29.6454 -95.2789 115° Southeast  Level Estimated

Login

Don't have an account? Register now (free) for customized features, flight alerts, and more!